This is the latest recevied weather packets stored in our database for station/object DB0RES-5. If no packets are shown the sender has not sent any weather packets the latest 10 day(s).
| Time | Temp. | Humidity | Pressure | Rain* | Wind** | Luminosity | Snow |
|---|---|---|---|---|---|---|---|
| 1777692924 | 13.33° C | 60% | 1021 hPa | 0 mm | - | - | - |
| 1777692321 | 13.33° C | 60% | 1020.9 hPa | 0 mm | - | - | - |
| 1777691719 | 13.33° C | 60% | 1021 hPa | 0 mm | - | - | - |
| 1777691116 | 13.89° C | 59% | 1021.2 hPa | 0 mm | - | - | - |
| 1777690574 | 13.89° C | 59% | 1021.1 hPa | 0 mm | - | - | - |
| 1777689971 | 13.89° C | 58% | 1021.1 hPa | 0 mm | - | - | - |
| 1777689368 | 13.89° C | 58% | 1021.2 hPa | 0 mm | - | - | - |
| 1777688766 | 13.89° C | 58% | 1021.3 hPa | 0 mm | - | - | - |
| 1777687561 | 14.44° C | 58% | 1021.4 hPa | 0 mm | - | - | - |
| 1777673762 | 17.22° C | 48% | 1022.9 hPa | 0 mm | - | - | - |
| 1777672557 | 17.22° C | 47% | 1022.9 hPa | 0 mm | - | - | - |
| 1777671954 | 17.78° C | 46% | 1022.9 hPa | 0 mm | - | - | - |
| 1777671351 | 17.78° C | 45% | 1023 hPa | 0 mm | - | - | - |
| 1777670749 | 18.33° C | 44% | 1022.8 hPa | 0 mm | - | - | - |
| 1777670146 | 18.33° C | 43% | 1022.9 hPa | 0 mm | - | - | - |
| 1777669544 | 18.89° C | 43% | 1023 hPa | 0 mm | - | - | - |
| 1777668941 | 18.89° C | 42% | 1023 hPa | 0 mm | - | - | - |
| 1777668339 | 18.89° C | 42% | 1023.1 hPa | 0 mm | - | - | - |
| 1777667736 | 19.44° C | 41% | 1023.1 hPa | 0 mm | - | - | - |
| 1777666533 | 19.44° C | 40% | 1023.2 hPa | 0 mm | - | - | - |
| 1777665928 | 19.44° C | 40% | 1023.2 hPa | 0 mm | - | - | - |
| 1777665326 | 20° C | 39% | 1023.1 hPa | 0 mm | - | - | - |
| 1777664121 | 20° C | 39% | 1023.1 hPa | 0 mm | - | - | - |
| 1777661168 | 21.11° C | 37% | 1023.1 hPa | 0 mm | - | - | - |
| 1777660565 | 21.67° C | 36% | 1023.1 hPa | 0 mm | - | - | - |
* Rain latest hour (hover to see other rain measurements)
** Current wind speed in m/s (hover to see current wind gust speed)